Flight Track Log - Related Links

Times and Time Zones

All times are in EDT time to prevent confusion due to time zone crossing. See the N53NW flight status page for this flight to view local times or setup timezone preferences in your user account.

Time Position Orientation Groundspeed Altitude Reporting Facility
EDT Latitude Longitude Course Direction KTS MPH feet Rate Location/Type
Mon 07:25:51 AM 39.9639 -83.1369 327° Northwest 232 267 2,900  Level Indianapolis Center
Mon 07:26:41 AM 40.0092 -83.1753 327° Northwest 252 290 4,100 2,378 Climbing Indianapolis Center
Mon 07:27:42 AM 40.0744 -83.2308 327° Northwest 275 316 7,300 3,000 Climbing Indianapolis Center
Mon 07:28:43 AM 40.1431 -83.2914 326° Northwest 295 339 10,200 2,902 Climbing Indianapolis Center
Mon 07:29:44 AM 40.2156 -83.3536 327° Northwest 309 356 13,200 2,902 Climbing Indianapolis Center
Mon 07:30:45 AM 40.2847 -83.4144 326° Northwest 301 346 16,100 2,732 Climbing Indianapolis Center
Mon 07:31:47 AM 40.3536 -83.4747 326° Northwest 297 342 18,800 1,902 Climbing Indianapolis Center
Mon 07:32:48 AM 40.4258 -83.5378 326° Northwest 309 356 20,000 590 Climbing Indianapolis Center
Mon 07:33:49 AM 40.5094 -83.6111 326° Northwest 356 410 20,000  Level Indianapolis Center
Mon 07:34:51 AM 40.6097 -83.6992 326° Northwest 368 423 20,000  Level Indianapolis Center
Mon 07:35:52 AM 40.6958 -83.7758 326° Northwest 369 425 20,000  Level Indianapolis Center
Mon 07:36:53 AM 40.7811 -83.8519 326° Northwest 366 421 20,000  Level Indianapolis Center
Mon 07:37:55 AM 40.8658 -83.9267 326° Northwest 363 418 20,000  Level Indianapolis Center
Mon 07:38:56 AM 40.9489 -84.0008 326° Northwest 361 415 20,000  Level Indianapolis Center
Mon 07:39:58 AM 41.0322 -84.0764 326° Northwest 361 415 20,000  Level Indianapolis Center
Mon 07:40:59 AM 41.1156 -84.1500 326° Northwest 358 412 20,000  Level Indianapolis Center
Mon 07:41:18 AM 41.1392 -84.1725 324° Northwest 359 413 20,000  Level Chicago Center
Mon 07:42:20 AM 41.2219 -84.2467 326° Northwest 359 413 20,000  Level Chicago Center
Mon 07:43:21 AM 41.3044 -84.3222 325° Northwest 361 415 20,000  Level Chicago Center
Mon 07:44:23 AM 41.3864 -84.3958 326° Northwest 358 412 20,000 -240 Level Chicago Center
Mon 07:45:01 AM 41.4525 -84.4567 325° Northwest 363 418 19,600 -1,347 Descending Cleveland Center
Mon 07:46:01 AM 41.5353 -84.5308 326° Northwest 368 423 17,800 -1,721 Descending Cleveland Center
Mon 07:47:03 AM 41.6100 -84.6022 324° Northwest 356 410 16,100 -1,722 Descending Cleveland Center
Mon 07:49:30 AM 41.7897 -84.7664 326° Northwest 328 377 11,800 -1,522 Descending Chicago Center
Mon 07:50:32 AM 41.8631 -84.8333 326° Northwest 324 373 10,800 -1,610 Descending Chicago Center
Mon 07:51:33 AM 41.9314 -84.8983 325° Northwest 310 357 8,500 -2,390 Descending Chicago Center
Mon 07:52:35 AM 41.9978 -84.9889 315° West 291 335 5,900 -1,463 Descending Chicago Center
Mon 07:54:00 AM 42.1043 -85.0630 333° Northwest  Level FlightAware Approximate
Mon 07:55:39 AM 42.1458 -85.2078 324° Northwest 263 303 2,500  Level Chicago Center
Mon 07:56:41 AM 42.1953 -85.2800 313° West 263 303 2,500 -48 Level Chicago Center
Mon 07:57:43 AM 42.2419 -85.3208 327° Northwest 217 250 2,400 -439 Descending Chicago Center
Mon 07:58:44 AM 42.2725 -85.2936 33° Northeast 134 154 1,600 -634 Descending Chicago Center
Mon 07:59:46 AM 42.2972 -85.2617 44° Northeast 121 139 1,100 -484 Descending Chicago Center
Mon 08:01:00 AM 42.3000 -85.2500 324° Northwest  Level FlightAware Approximate

Login

Don't have an account? Register now (free) for customized features, flight alerts, and more!